Time;durP1;ratioP1;P1;durP2;ratioP2;P2;SDS_P1;SDS_P2;PMS_P1;PMS_P2;Temp;Humidity;BMP_temperature;BMP_pressure;BME280_temperature;BME280_humidity;BME280_pressure;Samples;Min_cycle;Max_cycle;Signal;HPM_P1;HPM_P2
2023/04/10 00:00:44;;;;;;;4.40;3.97;;;18.80;66.00;;;;;;5047894;28;20186;-46
2023/04/10 00:03:26;;;;;;;4.73;3.70;;;18.80;66.10;;;;;;5047661;28;20222;-45
2023/04/10 00:05:56;;;;;;;4.03;3.67;;;18.70;66.20;;;;;;5045243;28;20206;-46
2023/04/10 00:08:25;;;;;;;3.77;3.47;;;18.70;65.90;;;;;;5029958;28;20271;-45
2023/04/10 00:10:55;;;;;;;3.57;3.27;;;18.70;65.90;;;;;;5029510;28;20198;-45
2023/04/10 00:13:24;;;;;;;3.90;3.60;;;18.70;65.80;;;;;;5048270;28;20650;-45
2023/04/10 00:15:54;;;;;;;3.73;3.40;;;18.70;66.00;;;;;;5051830;28;20221;-45
2023/04/10 00:18:24;;;;;;;4.03;3.43;;;18.70;66.10;;;;;;5044859;28;20233;-46
2023/04/10 00:20:56;;;;;;;4.43;3.90;;;18.70;66.20;;;;;;5046031;28;20667;-46
2023/04/10 00:23:26;;;;;;;3.70;3.40;;;18.70;65.90;;;;;;5037786;28;20249;-45
2023/04/10 00:25:56;;;;;;;3.63;3.33;;;18.70;65.80;;;;;;5028088;28;20182;-46
2023/04/10 00:28:24;;;;;;;3.90;3.40;;;18.70;65.80;;;;;;5015809;28;20218;-46
2023/04/10 00:30:56;;;;;;;4.07;3.70;;;18.60;65.60;;;;;;5043889;28;20210;-45
2023/04/10 00:33:28;;;;;;;4.03;3.73;;;18.70;65.60;;;;;;5048083;28;20520;-46
2023/04/10 00:36:00;;;;;;;3.30;3.00;;;18.60;65.60;;;;;;5047309;28;20214;-45
2023/04/10 00:38:32;;;;;;;3.70;3.00;;;18.60;65.50;;;;;;5046988;28;20198;-45
2023/04/10 00:40:59;;;;;;;4.63;3.47;;;18.60;65.40;;;;;;5045082;28;20207;-45
2023/04/10 00:43:38;;;;;;;3.70;3.40;;;18.60;65.50;;;;;;5054237;28;20188;-45
2023/04/10 00:46:07;;;;;;;5.87;3.30;;;18.60;65.40;;;;;;5043068;28;20311;-46
2023/04/10 00:48:37;;;;;;;3.60;3.30;;;18.60;65.70;;;;;;5046290;28;20230;-45
2023/04/10 00:51:07;;;;;;;3.77;3.30;;;18.60;65.40;;;;;;5027359;28;20230;-45
2023/04/10 00:53:38;;;;;;;3.83;3.53;;;18.60;65.40;;;;;;5040461;28;20214;-45
2023/04/10 00:56:08;;;;;;;4.93;4.23;;;18.50;65.30;;;;;;5026490;28;20683;-45
2023/04/10 00:58:38;;;;;;;3.93;3.40;;;18.60;65.30;;;;;;5051551;28;20626;-45
2023/04/10 01:01:10;;;;;;;4.23;3.83;;;18.50;65.20;;;;;;5052354;28;20198;-45
2023/04/10 01:03:42;;;;;;;3.73;3.23;;;18.50;65.20;;;;;;5052310;28;20186;-46
2023/04/10 01:06:30;;;;;;;3.20;3.00;;;18.50;65.40;;;;;;5047780;28;20206;-45
2023/04/10 01:09:32;;;;;;;4.60;3.30;;;18.50;65.00;;;;;;5050668;28;20211;-45
2023/04/10 01:12:21;;;;;;;3.70;3.30;;;18.50;65.10;;;;;;5052893;28;20213;-45
2023/04/10 01:15:25;;;;;;;3.70;3.40;;;18.50;65.00;;;;;;5054253;28;20228;-46
2023/04/10 01:18:24;;;;;;;3.53;3.23;;;18.40;65.00;;;;;;5032182;28;20214;-45
2023/04/10 01:20:57;;;;;;;3.67;3.37;;;18.40;65.10;;;;;;5043968;28;20251;-45
2023/04/10 01:23:59;;;;;;;3.47;3.17;;;18.40;65.30;;;;;;5050877;28;20305;-45
2023/04/10 01:27:06;;;;;;;3.90;3.60;;;18.40;65.20;;;;;;5050839;28;20195;-45
2023/04/10 01:29:40;;;;;;;3.70;3.40;;;18.30;65.10;;;;;;5049479;28;20757;-45
2023/04/10 01:32:19;;;;;;;3.77;3.30;;;18.30;65.40;;;;;;5034856;28;20202;-46
2023/04/10 01:34:53;;;;;;;3.83;3.40;;;18.30;65.50;;;;;;5025991;28;20264;-45
2023/04/10 01:37:32;;;;;;;4.27;3.87;;;18.30;65.50;;;;;;5045547;28;20198;-45
2023/04/10 01:40:16;;;;;;;3.60;3.30;;;18.30;65.50;;;;;;5052112;28;20186;-45
2023/04/10 01:42:52;;;;;;;3.50;3.20;;;18.30;65.40;;;;;;5032101;28;20230;-45
2023/04/10 01:45:27;;;;;;;2.97;2.77;;;18.30;65.50;;;;;;5031626;28;20213;-45
2023/04/10 01:48:05;;;;;;;3.47;3.17;;;18.30;65.60;;;;;;5036709;28;20194;-45
2023/04/10 01:50:38;;;;;;;3.70;3.40;;;18.20;65.60;;;;;;5053317;28;20224;-45
2023/04/10 01:53:09;;;;;;;3.60;3.30;;;18.30;65.60;;;;;;5035311;28;20210;-45
2023/04/10 01:55:41;;;;;;;3.53;3.23;;;18.20;65.50;;;;;;5037387;28;20217;-45
2023/04/10 01:58:11;;;;;;;3.07;2.77;;;18.20;65.50;;;;;;5059703;28;20202;-45
2023/04/10 02:00:42;;;;;;;3.30;3.00;;;18.20;65.60;;;;;;5031709;28;20217;-46
2023/04/10 02:03:12;;;;;;;3.43;3.13;;;18.20;65.70;;;;;;5051873;28;20201;-46
2023/04/10 02:06:07;;;;;;;4.00;3.67;;;18.20;65.60;;;;;;5048133;28;20684;-45
2023/04/10 02:08:51;;;;;;;3.40;3.10;;;18.20;65.60;;;;;;5028729;28;20252;-45
2023/04/10 02:11:37;;;;;;;3.30;3.00;;;18.20;65.60;;;;;;5037642;28;20699;-46
2023/04/10 02:14:15;;;;;;;3.60;3.30;;;18.20;65.60;;;;;;5044208;28;20190;-46
2023/04/10 02:16:48;;;;;;;3.47;3.17;;;18.20;65.70;;;;;;5027737;28;20234;-47
2023/04/10 02:19:22;;;;;;;3.77;3.43;;;18.20;65.60;;;;;;5033142;28;20209;-46
2023/04/10 02:21:51;;;;;;;3.20;2.90;;;18.20;66.30;;;;;;5016403;28;20213;-45
2023/04/10 02:24:27;;;;;;;3.30;3.00;;;18.10;65.50;;;;;;5034628;28;20233;-45
2023/04/10 02:26:56;;;;;;;3.20;2.90;;;18.10;65.50;;;;;;5046808;28;20210;-45
2023/04/10 02:29:25;;;;;;;3.37;3.07;;;18.10;65.40;;;;;;5047729;28;20249;-45
2023/04/10 02:31:56;;;;;;;3.70;3.40;;;18.10;65.30;;;;;;5050395;28;20619;-45
2023/04/10 02:34:26;;;;;;;3.83;3.53;;;18.10;65.20;;;;;;5032396;28;20221;-45
2023/04/10 02:36:57;;;;;;;4.00;3.57;;;18.10;65.20;;;;;;5049679;28;20706;-45
2023/04/10 02:39:27;;;;;;;3.63;3.33;;;18.10;65.10;;;;;;5049953;28;20636;-45
2023/04/10 02:42:00;;;;;;;3.87;3.57;;;18.10;65.10;;;;;;5049229;28;20199;-45
2023/04/10 02:44:28;;;;;;;3.30;3.07;;;18.00;64.90;;;;;;5044623;28;20241;-45
2023/04/10 02:46:59;;;;;;;3.50;3.20;;;18.10;65.00;;;;;;5049341;28;20689;-45
2023/04/10 02:49:30;;;;;;;3.60;3.30;;;18.10;65.00;;;;;;5032078;28;20813;-45
2023/04/10 02:52:01;;;;;;;3.83;3.43;;;18.10;65.00;;;;;;5049145;28;20201;-46
2023/04/10 02:54:30;;;;;;;4.00;3.70;;;18.10;65.60;;;;;;5045745;28;20210;-45
2023/04/10 02:57:01;;;;;;;3.27;2.97;;;18.10;65.00;;;;;;5049238;28;20279;-45
2023/04/10 02:59:32;;;;;;;3.50;3.20;;;18.10;65.00;;;;;;5032705;28;20537;-46
2023/04/10 03:02:06;;;;;;;3.37;3.07;;;18.10;65.00;;;;;;5033082;28;20205;-46
2023/04/10 03:04:40;;;;;;;3.60;3.30;;;18.00;64.90;;;;;;5044849;28;20281;-46
2023/04/10 03:07:07;;;;;;;3.10;2.80;;;18.00;64.90;;;;;;5052050;28;20198;-45
2023/04/10 03:09:43;;;;;;;2.97;2.77;;;18.00;65.00;;;;;;5035852;28;20221;-45
2023/04/10 03:12:13;;;;;;;3.93;3.37;;;18.00;65.10;;;;;;5036114;28;20190;-45
2023/04/10 03:14:45;;;;;;;3.27;2.97;;;18.00;65.00;;;;;;5030724;28;20209;-45
2023/04/10 03:17:16;;;;;;;3.20;2.90;;;18.00;65.00;;;;;;5050997;28;20210;-45
2023/04/10 03:19:47;;;;;;;2.80;2.60;;;18.00;65.00;;;;;;5051515;28;20213;-45
2023/04/10 03:22:17;;;;;;;2.90;2.70;;;18.00;65.00;;;;;;5049564;28;20249;-45
2023/04/10 03:24:49;;;;;;;3.00;2.80;;;18.00;65.00;;;;;;5045859;28;20224;-46
2023/04/10 03:27:18;;;;;;;3.30;3.00;;;18.00;64.90;;;;;;5053293;28;20563;-45
2023/04/10 03:29:48;;;;;;;3.53;3.27;;;18.00;65.00;;;;;;5028698;28;20230;-45
2023/04/10 03:32:20;;;;;;;3.47;3.17;;;18.00;65.00;;;;;;5049102;28;20195;-45
2023/04/10 03:34:47;;;;;;;3.10;2.80;;;17.90;64.90;;;;;;5046194;28;20199;-45
2023/04/10 03:37:19;;;;;;;3.30;3.00;;;18.00;64.90;;;;;;5048104;28;20209;-45
2023/04/10 03:39:51;;;;;;;3.10;2.90;;;17.90;64.90;;;;;;5048578;28;20198;-45
2023/04/10 03:42:22;;;;;;;3.07;2.87;;;17.90;64.90;;;;;;5046425;28;20587;-45
2023/04/10 03:44:54;;;;;;;3.07;2.83;;;17.90;64.90;;;;;;5046024;28;20264;-45
2023/04/10 03:47:25;;;;;;;3.47;3.17;;;17.90;64.90;;;;;;5041528;28;20194;-45
2023/04/10 03:49:59;;;;;;;3.00;2.77;;;17.90;65.40;;;;;;5048778;28;20671;-45
2023/04/10 03:52:37;;;;;;;2.87;2.67;;;17.90;64.80;;;;;;5047176;28;20213;-45
2023/04/10 03:55:20;;;;;;;3.23;2.77;;;17.90;64.80;;;;;;5052572;28;20222;-45
2023/04/10 03:57:51;;;;;;;3.03;2.73;;;17.90;64.80;;;;;;5048410;28;20575;-46
2023/04/10 04:00:35;;;;;;;3.30;2.87;;;17.90;64.80;;;;;;5047598;28;20194;-45
2023/04/10 04:03:04;;;;;;;3.23;2.93;;;17.90;64.70;;;;;;5049134;28;20619;-45
2023/04/10 04:05:34;;;;;;;3.20;2.90;;;17.90;64.80;;;;;;5045810;28;20224;-45
2023/04/10 04:08:05;;;;;;;3.47;3.13;;;17.90;64.70;;;;;;5048378;28;20205;-45
2023/04/10 04:10:34;;;;;;;3.37;3.03;;;17.90;64.70;;;;;;5048320;28;20257;-45
2023/04/10 04:13:04;;;;;;;3.10;2.90;;;17.90;64.70;;;;;;5045869;28;20602;-45
2023/04/10 04:15:36;;;;;;;3.10;2.90;;;17.90;64.60;;;;;;5030186;28;20204;-46
2023/04/10 04:18:05;;;;;;;4.03;3.20;;;17.90;64.60;;;;;;5045795;28;20198;-45
2023/04/10 04:20:37;;;;;;;3.10;2.90;;;17.90;64.60;;;;;;5046173;28;20616;-45
2023/04/10 04:23:09;;;;;;;3.43;3.13;;;17.80;64.50;;;;;;5037436;28;20611;-46
2023/04/10 04:25:38;;;;;;;2.70;2.50;;;17.80;64.50;;;;;;5053929;28;20206;-46
2023/04/10 04:28:10;;;;;;;3.13;2.87;;;17.80;64.40;;;;;;5048199;28;20202;-45
2023/04/10 04:30:40;;;;;;;3.90;2.50;;;17.80;64.40;;;;;;5043456;28;20549;-45
2023/04/10 04:33:08;;;;;;;3.43;3.13;;;17.80;64.40;;;;;;5051775;28;20198;-45
2023/04/10 04:35:38;;;;;;;3.20;2.90;;;17.80;64.30;;;;;;5034946;28;20194;-45
2023/04/10 04:38:08;;;;;;;2.70;2.50;;;17.80;64.30;;;;;;5034282;28;20234;-46
2023/04/10 04:40:38;;;;;;;3.10;2.83;;;17.80;64.30;;;;;;5057881;28;20203;-45
2023/04/10 04:43:08;;;;;;;2.97;2.73;;;17.80;64.30;;;;;;5052559;28;20204;-45
2023/04/10 04:45:39;;;;;;;3.47;3.17;;;17.80;64.30;;;;;;5052313;28;20226;-45
2023/04/10 04:48:09;;;;;;;3.00;2.80;;;17.80;64.30;;;;;;5051881;28;20203;-45
2023/04/10 04:50:40;;;;;;;3.13;2.90;;;17.80;64.30;;;;;;5049905;28;20284;-45
2023/04/10 04:53:10;;;;;;;3.03;2.80;;;17.80;64.20;;;;;;5032433;28;20209;-45
2023/04/10 04:55:43;;;;;;;5.50;2.90;;;17.80;64.20;;;;;;5062587;28;20198;-45
2023/04/10 04:58:12;;;;;;;3.00;2.80;;;17.80;64.10;;;;;;5052642;28;20624;-45
2023/04/10 05:00:42;;;;;;;2.70;2.50;;;17.80;64.00;;;;;;5049803;28;20202;-45
2023/04/10 05:03:14;;;;;;;3.10;2.80;;;17.80;64.00;;;;;;5051731;28;20190;-45
2023/04/10 05:05:44;;;;;;;2.93;2.73;;;17.70;63.90;;;;;;5048993;28;20667;-45
2023/04/10 05:08:13;;;;;;;3.30;3.00;;;17.70;63.80;;;;;;5051708;28;20365;-45
2023/04/10 05:10:43;;;;;;;3.37;3.07;;;17.70;63.80;;;;;;5061632;28;20229;-45
2023/04/10 05:13:16;;;;;;;3.10;2.90;;;17.70;63.80;;;;;;5034811;28;20192;-45
2023/04/10 05:15:43;;;;;;;3.30;3.00;;;17.70;63.80;;;;;;5046766;28;20199;-45
2023/04/10 05:18:18;;;;;;;3.40;3.10;;;17.70;63.80;;;;;;5027578;28;20207;-46
2023/04/10 05:20:48;;;;;;;3.57;3.27;;;17.70;63.70;;;;;;5044633;28;20205;-45
2023/04/10 05:23:16;;;;;;;2.80;2.60;;;17.70;63.60;;;;;;5036894;28;20261;-46
2023/04/10 05:26:01;;;;;;;3.10;2.90;;;17.70;63.50;;;;;;5037249;28;20194;-46
2023/04/10 05:28:35;;;;;;;3.90;3.20;;;17.70;63.50;;;;;;5031009;28;20201;-45
2023/04/10 05:31:05;;;;;;;4.27;3.87;;;17.70;63.40;;;;;;5051363;28;20222;-45
2023/04/10 05:33:37;;;;;;;3.97;3.67;;;17.70;63.30;;;;;;5050261;28;20198;-45
2023/04/10 05:36:09;;;;;;;3.80;3.50;;;17.70;63.30;;;;;;5051406;28;20198;-45
2023/04/10 05:38:43;;;;;;;3.80;3.50;;;17.70;63.20;;;;;;5044111;28;20542;-45
2023/04/10 05:41:12;;;;;;;3.87;3.20;;;17.70;63.10;;;;;;5056680;28;20655;-45
2023/04/10 05:43:44;;;;;;;4.27;3.53;;;17.70;63.00;;;;;;5050021;28;20199;-45
2023/04/10 05:46:15;;;;;;;5.17;3.60;;;17.70;63.00;;;;;;5047445;28;20199;-45
2023/04/10 05:48:47;;;;;;;3.50;3.20;;;17.70;62.90;;;;;;5050147;28;20650;-45
2023/04/10 05:51:18;;;;;;;4.27;3.77;;;17.70;62.90;;;;;;5052533;28;20223;-45
2023/04/10 05:53:51;;;;;;;3.50;3.20;;;17.70;62.90;;;;;;5049094;28;20213;-45
2023/04/10 05:56:21;;;;;;;4.47;3.30;;;17.70;62.80;;;;;;5035671;28;20194;-46
2023/04/10 05:58:51;;;;;;;4.17;3.27;;;17.70;62.80;;;;;;5049714;28;20693;-46
2023/04/10 06:01:25;;;;;;;4.50;3.63;;;17.70;62.60;;;;;;5043433;28;20187;-45
2023/04/10 06:03:56;;;;;;;4.10;3.70;;;17.70;62.70;;;;;;5048405;28;20201;-46
2023/04/10 06:06:28;;;;;;;4.17;3.77;;;17.70;62.70;;;;;;5048957;28;20218;-45
2023/04/10 06:08:58;;;;;;;3.83;3.53;;;17.60;62.50;;;;;;5052088;28;20280;-46
2023/04/10 06:11:40;;;;;;;3.50;3.20;;;17.70;62.50;;;;;;5050080;28;20281;-45
2023/04/10 06:14:12;;;;;;;6.53;4.40;;;17.70;62.50;;;;;;5049154;28;20217;-45
2023/04/10 06:16:42;;;;;;;20.23;8.07;;;17.70;62.30;;;;;;5045955;28;20198;-46
2023/04/10 06:19:14;;;;;;;35.33;9.90;;;17.70;62.60;;;;;;5049971;28;20199;-45
2023/04/10 06:21:45;;;;;;;33.47;10.57;;;17.70;62.70;;;;;;5050223;28;20210;-45
2023/04/10 06:24:21;;;;;;;30.90;10.70;;;17.70;62.60;;;;;;5052380;28;20833;-45
2023/04/10 06:26:59;;;;;;;33.07;10.20;;;17.70;62.40;;;;;;5049685;28;20209;-45
2023/04/10 06:29:30;;;;;;;24.67;10.53;;;17.70;62.20;;;;;;5048885;28;20222;-45
2023/04/10 06:32:00;;;;;;;30.27;10.60;;;17.70;62.20;;;;;;5049962;28;20230;-45
2023/04/10 06:34:34;;;;;;;30.63;10.77;;;17.70;62.00;;;;;;5047035;28;20186;-45
2023/04/10 06:37:05;;;;;;;27.23;9.63;;;17.70;61.90;;;;;;5053245;28;20194;-45
2023/04/10 06:39:32;;;;;;;30.50;10.93;;;17.70;61.60;;;;;;5054385;28;20608;-45
2023/04/10 06:42:03;;;;;;;23.83;10.70;;;17.70;61.80;;;;;;5046809;28;20210;-45
2023/04/10 06:44:34;;;;;;;25.83;9.43;;;17.70;61.40;;;;;;5047629;28;20194;-45
2023/04/10 06:47:05;;;;;;;24.37;9.83;;;17.70;61.30;;;;;;5051124;28;20819;-45
2023/04/10 06:49:34;;;;;;;21.00;8.77;;;17.70;61.20;;;;;;5053724;28;20527;-45
2023/04/10 06:52:04;;;;;;;19.50;8.63;;;17.70;61.10;;;;;;5037171;28;20206;-45
2023/04/10 06:54:36;;;;;;;23.97;9.53;;;17.70;60.90;;;;;;5047829;28;20638;-45
2023/04/10 06:57:05;;;;;;;21.23;8.80;;;17.70;61.00;;;;;;5053139;28;20281;-45
2023/04/10 06:59:35;;;;;;;15.63;8.27;;;17.70;60.50;;;;;;5052127;28;20515;-45
2023/04/10 07:02:08;;;;;;;20.03;9.13;;;17.70;60.50;;;;;;5050748;28;20272;-45
2023/04/10 07:04:38;;;;;;;18.07;7.93;;;17.70;60.30;;;;;;5032582;28;20225;-46
2023/04/10 07:07:12;;;;;;;18.30;7.50;;;17.70;60.00;;;;;;5052825;28;20669;-45
2023/04/10 07:09:43;;;;;;;14.73;7.37;;;17.70;60.20;;;;;;5032141;28;20194;-46
2023/04/10 07:12:15;;;;;;;15.13;8.37;;;17.70;60.00;;;;;;5036291;28;20217;-45
2023/04/10 07:14:48;;;;;;;14.80;7.23;;;17.70;59.80;;;;;;5047016;28;20634;-45
2023/04/10 07:17:16;;;;;;;13.87;7.10;;;17.70;60.00;;;;;;5029206;28;20214;-46
2023/04/10 07:19:45;;;;;;;10.10;6.10;;;17.70;59.90;;;;;;5049303;28;20190;-45
2023/04/10 07:22:16;;;;;;;15.90;7.07;;;17.70;59.60;;;;;;5052157;28;20203;-45
2023/04/10 07:24:47;;;;;;;13.90;7.03;;;17.70;59.50;;;;;;5046278;28;20206;-45
2023/04/10 07:27:16;;;;;;;11.47;6.20;;;17.70;59.60;;;;;;5029247;28;20202;-45
2023/04/10 07:29:59;;;;;;;11.03;6.23;;;17.70;59.60;;;;;;5048048;28;20226;-45
2023/04/10 07:32:29;;;;;;;14.57;6.10;;;17.70;59.70;;;;;;5050244;28;20197;-45
2023/04/10 07:35:02;;;;;;;11.83;6.40;;;17.70;59.70;;;;;;5048824;28;20183;-46
2023/04/10 07:37:32;;;;;;;8.33;5.63;;;17.70;59.50;;;;;;5048966;28;20190;-45
2023/04/10 07:40:01;;;;;;;12.17;6.57;;;17.70;59.50;;;;;;5048977;28;20210;-46
2023/04/10 07:42:35;;;;;;;9.47;5.40;;;17.70;59.30;;;;;;5027804;28;20288;-45
2023/04/10 07:45:09;;;;;;;14.10;6.27;;;17.70;59.30;;;;;;5049417;28;20536;-45
2023/04/10 07:47:40;;;;;;;10.43;6.10;;;17.60;59.30;;;;;;5048413;28;20194;-46
2023/04/10 07:50:10;;;;;;;9.87;5.80;;;17.70;59.40;;;;;;5031951;28;20202;-45
2023/04/10 07:52:42;;;;;;;9.27;5.50;;;17.70;59.20;;;;;;5056201;28;20511;-45
2023/04/10 07:55:11;;;;;;;8.03;5.17;;;17.70;59.20;;;;;;5031670;28;20233;-45
2023/04/10 07:57:38;;;;;;;11.17;5.47;;;17.70;59.10;;;;;;5048745;28;20199;-45
2023/04/10 08:00:09;;;;;;;8.70;5.67;;;17.70;59.20;;;;;;5047520;28;20656;-45
2023/04/10 08:02:39;;;;;;;7.33;4.70;;;17.70;59.00;;;;;;5039154;28;20206;-45
2023/04/10 08:05:07;;;;;;;7.17;4.63;;;17.70;58.90;;;;;;5045346;28;20558;-46
2023/04/10 08:07:39;;;;;;;7.73;4.80;;;17.70;59.00;;;;;;5051924;28;20210;-45
2023/04/10 08:10:11;;;;;;;9.17;4.60;;;17.70;58.70;;;;;;5052594;28;20225;-45
2023/04/10 08:12:40;;;;;;;7.33;5.03;;;17.70;58.60;;;;;;5050682;28;20202;-45
2023/04/10 08:15:09;;;;;;;7.63;4.53;;;17.70;58.50;;;;;;5034426;28;20218;-45
2023/04/10 08:17:40;;;;;;;5.40;4.37;;;17.70;58.90;;;;;;5050346;28;20264;-45
2023/04/10 08:20:13;;;;;;;6.67;4.70;;;17.70;58.60;;;;;;5052916;28;20209;-46
2023/04/10 08:22:44;;;;;;;5.43;4.40;;;17.70;58.10;;;;;;5053827;28;20671;-45
2023/04/10 08:25:17;;;;;;;6.67;4.57;;;17.80;58.40;;;;;;5052367;28;20198;-46
2023/04/10 08:27:48;;;;;;;6.70;4.27;;;17.80;58.50;;;;;;5018923;28;20201;-45
2023/04/10 08:30:18;;;;;;;7.10;4.53;;;17.80;57.90;;;;;;5050008;28;20718;-45
2023/04/10 08:32:47;;;;;;;6.00;4.33;;;17.80;57.80;;;;;;5032107;28;20214;-45
2023/04/10 08:35:18;;;;;;;4.53;3.93;;;17.80;57.70;;;;;;5052141;28;20205;-46
2023/04/10 08:37:49;;;;;;;4.97;4.47;;;17.80;57.10;;;;;;5055599;28;20213;-46
2023/04/10 08:40:43;;;;;;;6.63;4.43;;;17.90;57.10;;;;;;5037718;28;20203;-45
2023/04/10 08:43:11;;;;;;;5.17;4.10;;;17.90;57.00;;;;;;5052013;28;20210;-46
2023/04/10 08:45:42;;;;;;;6.10;4.07;;;17.80;57.20;;;;;;5034925;28;20221;-46
2023/04/10 08:48:13;;;;;;;4.23;3.50;;;17.90;57.10;;;;;;5050738;28;20303;-45
2023/04/10 08:50:45;;;;;;;5.43;4.33;;;17.90;57.40;;;;;;5035959;28;20232;-46
2023/04/10 08:53:23;;;;;;;5.50;3.90;;;17.90;57.50;;;;;;5032616;28;20666;-45
2023/04/10 08:55:55;;;;;;;6.13;4.27;;;17.90;57.40;;;;;;5035573;28;20638;-46
2023/04/10 08:58:29;;;;;;;6.63;4.23;;;17.90;56.80;;;;;;5051223;28;20206;-45
2023/04/10 09:01:00;;;;;;;4.97;4.47;;;17.90;57.10;;;;;;5052304;28;20213;-46
2023/04/10 09:03:29;;;;;;;5.17;3.63;;;17.90;56.50;;;;;;5021817;28;20198;-46
2023/04/10 09:06:22;;;;;;;6.33;4.43;;;17.90;56.70;;;;;;5054487;28;20214;-47
2023/04/10 09:08:53;;;;;;;4.73;3.93;;;17.90;57.00;;;;;;5048559;28;20194;-51
2023/04/10 09:11:44;;;;;;;5.17;4.67;;;17.90;56.60;;;;;;5051694;28;20590;-45
2023/04/10 09:14:21;;;;;;;4.10;3.70;;;18.00;57.30;;;;;;5051545;28;20214;-46
2023/04/10 09:16:53;;;;;;;4.10;3.57;;;17.90;58.10;;;;;;5031390;28;20775;-46
2023/04/10 09:19:33;;;;;;;5.20;3.70;;;17.90;57.10;;;;;;5035527;28;20392;-46
2023/04/10 09:22:02;;;;;;;4.43;3.60;;;17.90;57.60;;;;;;5040125;28;20198;-46
2023/04/10 09:24:36;;;;;;;4.00;3.57;;;17.90;57.10;;;;;;5054710;28;20237;-46
2023/04/10 09:27:09;;;;;;;4.93;3.57;;;17.90;57.10;;;;;;5051537;28;20205;-47
2023/04/10 09:29:55;;;;;;;3.63;3.33;;;17.90;57.50;;;;;;5048674;28;20226;-46
2023/04/10 09:32:48;;;;;;;3.40;3.10;;;17.90;57.60;;;;;;5031103;28;20214;-45
2023/04/10 09:35:38;;;;;;;3.73;3.33;;;17.90;57.80;;;;;;5036716;28;20175;-46
2023/04/10 09:38:16;;;;;;;4.13;3.50;;;18.00;58.00;;;;;;5048085;28;20202;-45
2023/04/10 09:40:47;;;;;;;4.57;4.07;;;18.00;58.00;;;;;;5046891;28;20221;-46
2023/04/10 09:43:27;;;;;;;3.90;3.37;;;18.00;57.90;;;;;;5033645;28;20197;-46
2023/04/10 09:45:58;;;;;;;3.93;3.20;;;18.00;57.80;;;;;;5051123;28;20639;-45
2023/04/10 09:48:26;;;;;;;3.90;3.30;;;18.00;57.90;;;;;;5041087;28;20197;-45
2023/04/10 09:51:03;;;;;;;3.93;3.53;;;18.00;58.10;;;;;;5054907;28;20220;-46
2023/04/10 09:53:50;;;;;;;3.83;3.43;;;18.00;58.00;;;;;;5048604;28;20206;-45
2023/04/10 09:56:21;;;;;;;3.80;3.40;;;18.00;57.80;;;;;;5050724;28;20235;-46
2023/04/10 09:58:53;;;;;;;3.83;3.43;;;18.00;57.80;;;;;;5030687;28;20847;-46
2023/04/10 10:01:25;;;;;;;5.40;3.40;;;18.00;57.80;;;;;;5051617;28;20198;-45
2023/04/10 10:04:04;;;;;;;4.83;3.50;;;18.00;57.90;;;;;;5054794;28;20196;-46
2023/04/10 10:06:35;;;;;;;3.70;3.40;;;18.10;57.70;;;;;;5043246;28;20210;-45
2023/04/10 10:09:07;;;;;;;4.07;3.60;;;18.10;57.80;;;;;;5016861;28;20273;-46
2023/04/10 10:11:38;;;;;;;4.13;3.73;;;18.10;57.80;;;;;;5050636;28;20210;-46
2023/04/10 10:14:14;;;;;;;4.40;3.90;;;18.10;57.80;;;;;;5049392;28;20191;-46
2023/04/10 10:16:50;;;;;;;4.20;3.80;;;18.10;57.80;;;;;;5014742;28;20657;-45
2023/04/10 10:19:37;;;;;;;3.77;3.40;;;18.10;57.90;;;;;;5025771;28;20207;-45
2023/04/10 10:22:09;;;;;;;4.13;3.40;;;18.10;58.00;;;;;;5050549;28;20201;-45
2023/04/10 10:24:43;;;;;;;5.03;3.87;;;18.10;57.90;;;;;;5047935;28;20643;-45
2023/04/10 10:27:30;;;;;;;3.47;3.17;;;18.10;58.00;;;;;;5027859;28;20194;-45
2023/04/10 10:30:06;;;;;;;3.30;3.00;;;18.20;58.10;;;;;;5047566;28;20306;-46
2023/04/10 10:33:13;;;;;;;3.30;3.00;;;18.10;57.90;;;;;;5038325;28;20625;-46
2023/04/10 10:35:44;;;;;;;4.00;3.60;;;18.20;57.80;;;;;;5039642;28;20206;-46
2023/04/10 10:38:47;;;;;;;4.00;3.67;;;18.20;57.80;;;;;;5035851;28;20769;-45
2023/04/10 10:41:45;;;;;;;3.47;3.17;;;18.20;57.70;;;;;;5053118;28;20412;-46
2023/04/10 10:44:51;;;;;;;7.87;3.00;;;18.20;58.00;;;;;;5005692;28;20227;-46
2023/04/10 10:47:31;;;;;;;3.20;2.90;;;18.20;58.10;;;;;;5028336;28;20198;-46
2023/04/10 10:50:11;;;;;;;3.97;3.50;;;18.20;58.00;;;;;;5033796;28;20244;-46
2023/04/10 10:52:45;;;;;;;3.60;3.30;;;18.20;57.70;;;;;;5045584;28;20210;-45
2023/04/10 10:55:30;;;;;;;3.73;3.00;;;18.20;58.60;;;;;;5051061;28;20276;-46
2023/04/10 10:58:17;;;;;;;3.87;3.10;;;18.30;57.80;;;;;;5052006;28;20194;-46
2023/04/10 11:00:58;;;;;;;3.63;3.03;;;18.30;57.70;;;;;;5052777;28;20275;-45
2023/04/10 11:03:31;;;;;;;2.80;2.60;;;18.30;57.90;;;;;;5057081;28;20199;-45
2023/04/10 11:06:08;;;;;;;3.00;2.70;;;18.30;57.90;;;;;;5053809;28;20207;-45
2023/04/10 11:08:50;;;;;;;3.37;3.07;;;18.30;57.70;;;;;;5052413;28;20224;-45
2023/04/10 11:11:26;;;;;;;3.07;2.77;;;18.30;57.70;;;;;;5034013;28;20218;-45
2023/04/10 11:13:58;;;;;;;3.30;3.00;;;18.30;57.50;;;;;;5039643;28;20233;-45
2023/04/10 11:16:44;;;;;;;3.10;2.80;;;18.30;57.50;;;;;;5057266;28;20620;-46
2023/04/10 11:19:18;;;;;;;2.73;2.50;;;18.30;57.60;;;;;;5053896;28;20264;-46
2023/04/10 11:22:06;;;;;;;3.47;3.17;;;18.30;57.40;;;;;;5039493;28;20277;-45
2023/04/10 11:24:59;;;;;;;3.07;2.80;;;18.30;57.40;;;;;;5055766;28;20312;-45
2023/04/10 11:27:42;;;;;;;2.80;2.60;;;18.40;57.40;;;;;;5047994;28;20202;-45
2023/04/10 11:30:33;;;;;;;2.83;2.63;;;18.40;57.20;;;;;;5035712;28;20270;-46
2023/04/10 11:33:04;;;;;;;3.23;2.50;;;18.40;57.20;;;;;;5042612;28;20226;-45
2023/04/10 11:35:32;;;;;;;2.63;2.43;;;18.40;57.00;;;;;;5035635;28;20206;-45
2023/04/10 11:38:15;;;;;;;2.40;2.20;;;18.50;57.00;;;;;;5033922;28;20194;-46
2023/04/10 11:41:02;;;;;;;2.43;2.10;;;18.50;57.10;;;;;;5028211;28;20229;-46
2023/04/10 11:43:35;;;;;;;2.73;2.53;;;18.50;56.90;;;;;;5023623;28;20219;-46
2023/04/10 11:46:06;;;;;;;2.97;2.77;;;18.50;56.70;;;;;;5058421;28;20424;-46
2023/04/10 11:48:37;;;;;;;2.63;2.43;;;18.50;56.40;;;;;;5037796;28;20265;-45
2023/04/10 11:51:13;;;;;;;2.27;2.07;;;18.50;56.30;;;;;;5053836;28;20228;-45
2023/04/10 11:53:44;;;;;;;4.03;2.70;;;18.50;56.20;;;;;;5047200;28;20230;-46
2023/04/10 11:56:18;;;;;;;2.60;2.40;;;18.50;55.80;;;;;;5049583;28;20658;-46
2023/04/10 11:58:52;;;;;;;2.20;2.00;;;18.50;56.30;;;;;;5030557;28;20205;-46
2023/04/10 12:01:22;;;;;;;2.57;2.37;;;18.50;55.70;;;;;;5036659;28;20640;-45
2023/04/10 12:03:56;;;;;;;2.50;2.30;;;18.50;55.60;;;;;;5049120;28;20194;-45
2023/04/10 12:06:26;;;;;;;2.17;1.97;;;18.60;55.50;;;;;;5048291;28;20640;-46
2023/04/10 12:08:54;;;;;;;2.40;2.20;;;18.50;55.20;;;;;;5009552;28;20542;-45
2023/04/10 12:11:28;;;;;;;2.60;2.27;;;18.50;55.60;;;;;;5032014;28;20208;-45
2023/04/10 12:14:01;;;;;;;3.07;2.10;;;18.60;54.90;;;;;;5048880;28;20201;-46
2023/04/10 12:16:32;;;;;;;2.73;2.50;;;18.60;55.10;;;;;;5052473;28;20186;-46
2023/04/10 12:19:01;;;;;;;2.43;2.20;;;18.60;55.00;;;;;;5044471;28;20530;-46
2023/04/10 12:21:34;;;;;;;2.30;2.10;;;18.60;54.90;;;;;;5031962;28;20198;-46
2023/04/10 12:24:06;;;;;;;2.33;2.13;;;18.60;55.00;;;;;;5019268;28;20249;-46
2023/04/10 12:26:49;;;;;;;2.30;2.10;;;18.60;55.20;;;;;;5045774;28;20226;-45
2023/04/10 12:29:26;;;;;;;2.10;1.90;;;18.60;55.10;;;;;;5046159;28;20207;-46
2023/04/10 12:31:55;;;;;;;3.43;2.17;;;18.60;54.90;;;;;;5048578;28;20218;-46
2023/04/10 12:34:26;;;;;;;2.53;2.33;;;18.60;54.20;;;;;;5031664;28;20190;-46
2023/04/10 12:36:56;;;;;;;2.93;2.10;;;18.70;54.10;;;;;;5048288;28;20190;-46
2023/04/10 12:39:29;;;;;;;1.77;1.67;;;18.70;54.30;;;;;;5048274;28;20222;-46
2023/04/10 12:42:22;;;;;;;2.20;2.00;;;18.70;54.20;;;;;;5034307;28;20207;-46
2023/04/10 12:44:58;;;;;;;2.07;1.87;;;18.70;54.70;;;;;;5049303;28;20940;-47
2023/04/10 12:47:29;;;;;;;3.17;2.10;;;18.70;54.70;;;;;;5034452;28;20206;-46
2023/04/10 12:50:12;;;;;;;2.10;2.00;;;18.70;54.20;;;;;;5051231;28;20262;-46
2023/04/10 12:53:01;;;;;;;1.97;1.87;;;18.70;54.30;;;;;;5046153;28;20297;-46
2023/04/10 12:55:33;;;;;;;2.60;2.40;;;18.70;54.40;;;;;;5025600;28;20195;-46
2023/04/10 12:58:21;;;;;;;2.00;1.77;;;18.70;54.20;;;;;;5054707;28;20198;-46
2023/04/10 13:00:53;;;;;;;3.10;2.40;;;18.70;54.50;;;;;;5051221;28;20187;-46
2023/04/10 13:03:25;;;;;;;2.20;2.00;;;18.70;54.90;;;;;;5032684;28;20535;-46
2023/04/10 13:05:55;;;;;;;2.53;2.10;;;18.70;54.50;;;;;;5049328;28;20214;-46
2023/04/10 13:08:25;;;;;;;1.97;1.87;;;18.70;54.70;;;;;;5018306;28;20206;-46
2023/04/10 13:10:54;;;;;;;2.20;2.00;;;18.80;54.80;;;;;;5048447;28;20534;-46
2023/04/10 13:13:24;;;;;;;2.33;2.13;;;18.80;54.50;;;;;;5054151;28;20224;-46
2023/04/10 13:15:54;;;;;;;2.30;2.10;;;18.80;54.70;;;;;;5051893;28;20197;-46
2023/04/10 13:18:22;;;;;;;2.53;2.07;;;18.80;54.60;;;;;;5048496;28;20207;-46
2023/04/10 13:20:51;;;;;;;2.33;2.13;;;18.80;54.30;;;;;;5049268;28;20195;-46